createdAt,value
2018-05-15T00:00:05.073Z,58.20
2018-05-15T00:00:36.500Z,58.10
2018-05-15T00:01:07.933Z,58.20
2018-05-15T00:01:39.355Z,57.80
2018-05-15T00:02:11.493Z,58.40
2018-05-15T00:02:44.403Z,58.40
2018-05-15T00:03:15.803Z,58.50
2018-05-15T00:03:47.212Z,58.50
2018-05-15T00:04:18.609Z,58.40
2018-05-15T00:04:50.789Z,58.40
2018-05-15T00:05:22.927Z,58.40
2018-05-15T00:05:54.364Z,58.40
2018-05-15T00:06:26.517Z,59.40
2018-05-15T00:06:58.688Z,58.80
2018-05-15T00:07:30.132Z,58.80
2018-05-15T00:08:02.359Z,58.80
2018-05-15T00:08:33.800Z,58.80
2018-05-15T00:09:05.224Z,59.00
2018-05-15T00:09:36.619Z,58.90
2018-05-15T00:10:08.760Z,59.00
2018-05-15T00:10:40.923Z,59.20
2018-05-15T00:11:12.327Z,59.20
2018-05-15T00:11:43.731Z,59.20
2018-05-15T00:12:15.905Z,59.10
2018-05-15T00:12:47.315Z,59.10
2018-05-15T00:13:19.478Z,59.10
2018-05-15T00:13:51.616Z,58.90
2018-05-15T00:14:23.029Z,58.90
2018-05-15T00:14:54.427Z,58.90
2018-05-15T00:15:25.840Z,58.70
2018-05-15T00:15:57.239Z,58.60
2018-05-15T00:16:28.632Z,58.80
2018-05-15T00:17:00.068Z,58.40
2018-05-15T00:17:31.460Z,58.30
2018-05-15T00:18:02.864Z,58.80
2018-05-15T00:18:35.335Z,59.80
2018-05-15T00:19:07.484Z,59.00
2018-05-15T00:19:39.624Z,59.10
2018-05-15T00:20:11.044Z,58.80
2018-05-15T00:20:42.439Z,58.90
2018-05-15T00:21:14.571Z,58.90
2018-05-15T00:21:45.981Z,58.90
2018-05-15T00:22:17.383Z,59.00
2018-05-15T00:22:48.793Z,58.80
2018-05-15T00:23:20.191Z,58.40
2018-05-15T00:23:51.651Z,58.40
2018-05-15T00:24:23.051Z,58.50
2018-05-15T00:24:55.187Z,58.50
2018-05-15T00:25:26.580Z,58.50
2018-05-15T00:25:57.968Z,58.50
2018-05-15T00:26:30.105Z,58.20
2018-05-15T00:27:01.502Z,58.20
2018-05-15T00:27:32.902Z,58.30
2018-05-15T00:28:04.335Z,58.50
2018-05-15T00:28:35.734Z,58.20
2018-05-15T00:29:07.156Z,58.10
2018-05-15T00:29:39.304Z,57.40
2018-05-15T00:30:11.440Z,57.70
2018-05-15T00:30:42.836Z,57.80
2018-05-15T00:31:14.232Z,57.80
2018-05-15T00:31:47.124Z,58.30
2018-05-15T00:32:19.278Z,58.40
2018-05-15T00:32:51.427Z,58.30
2018-05-15T00:33:22.823Z,58.30
2018-05-15T00:33:54.234Z,58.30
2018-05-15T00:34:25.672Z,58.20
2018-05-15T00:34:57.803Z,58.50
2018-05-15T00:35:29.947Z,58.50
2018-05-15T00:36:01.373Z,58.50
2018-05-15T00:36:32.784Z,58.40
2018-05-15T00:37:04.211Z,58.70
2018-05-15T00:37:36.352Z,58.20
2018-05-15T00:39:08.251Z,58.20
2018-05-15T00:39:40.411Z,58.20
2018-05-15T00:40:11.804Z,58.20
2018-05-15T00:40:43.208Z,58.60
2018-05-15T00:41:14.620Z,58.70
2018-05-15T00:41:46.764Z,59.10
2018-05-15T00:42:18.909Z,59.20
2018-05-15T00:42:50.355Z,59.20
2018-05-15T00:43:21.760Z,59.20
2018-05-15T00:43:53.179Z,59.20
2018-05-15T00:44:24.600Z,58.90
2018-05-15T00:44:56.783Z,58.90
2018-05-15T00:45:28.187Z,58.80
2018-05-15T00:45:59.579Z,58.70
2018-05-15T00:46:30.988Z,58.40
2018-05-15T00:47:02.395Z,58.60
2018-05-15T00:47:33.795Z,58.60
2018-05-15T00:48:05.203Z,58.30
2018-05-15T00:48:37.343Z,59.30
2018-05-15T00:49:08.742Z,58.90
2018-05-15T00:49:40.180Z,59.10
2018-05-15T00:50:12.021Z,59.00
2018-05-15T00:50:43.419Z,59.10
2018-05-15T00:51:14.813Z,59.20
2018-05-15T00:51:46.324Z,59.40
2018-05-15T00:52:18.459Z,59.30
2018-05-15T00:52:49.858Z,59.00
2018-05-15T00:53:21.256Z,58.90
2018-05-15T00:53:53.407Z,59.00
2018-05-15T00:54:24.819Z,58.90
2018-05-15T00:56:02.364Z,58.60
2018-05-15T00:56:34.503Z,59.60
2018-05-15T00:57:05.900Z,59.00
2018-05-15T00:57:37.304Z,58.90
2018-05-15T00:58:09.473Z,58.40
2018-05-15T00:58:41.611Z,58.50
2018-05-15T00:59:13.023Z,58.50
2018-05-15T00:59:44.448Z,58.60
2018-05-15T01:00:15.839Z,58.60
2018-05-15T01:00:48.031Z,59.10
2018-05-15T01:01:19.431Z,59.00
2018-05-15T01:01:50.838Z,59.00
2018-05-15T01:02:22.264Z,59.10
2018-05-15T01:02:53.664Z,59.30
2018-05-15T01:03:25.064Z,59.30
2018-05-15T01:03:56.465Z,59.20
2018-05-15T01:04:28.595Z,58.80
2018-05-15T01:04:59.995Z,58.80
2018-05-15T01:05:31.388Z,58.60
2018-05-15T01:06:03.555Z,59.70
2018-05-15T01:06:34.989Z,59.10
2018-05-15T01:07:06.379Z,58.90
2018-05-15T01:07:37.803Z,58.50
2018-05-15T01:08:09.202Z,58.80
2018-05-15T01:08:40.602Z,59.00
2018-05-15T01:09:12.007Z,58.90
2018-05-15T01:09:44.140Z,59.60
2018-05-15T01:10:15.527Z,59.60
2018-05-15T01:10:46.924Z,59.70
2018-05-15T01:11:18.360Z,59.70
2018-05-15T01:11:49.774Z,59.80
2018-05-15T01:12:21.180Z,59.80
2018-05-15T01:12:53.491Z,59.50
2018-05-15T01:13:24.879Z,59.50
2018-05-15T01:13:57.015Z,59.10
2018-05-15T01:14:28.411Z,59.10
2018-05-15T01:14:59.819Z,59.20
2018-05-15T01:15:31.240Z,60.00
2018-05-15T01:16:02.675Z,59.70
2018-05-15T01:16:34.100Z,59.70
2018-05-15T01:17:05.496Z,59.60
2018-05-15T01:17:36.903Z,59.80
2018-05-15T01:18:08.293Z,59.70
2018-05-15T01:18:39.694Z,59.90
2018-05-15T01:19:11.095Z,60.00
2018-05-15T01:19:42.494Z,60.30
2018-05-15T01:20:14.623Z,60.00
2018-05-15T01:20:46.794Z,60.10
2018-05-15T01:21:18.206Z,60.10
2018-05-15T01:21:49.640Z,60.10
2018-05-15T01:22:21.041Z,59.90
2018-05-15T01:22:52.437Z,60.20
2018-05-15T01:23:23.847Z,60.10
2018-05-15T01:23:55.248Z,60.20
2018-05-15T01:24:26.636Z,60.10
2018-05-15T01:24:58.047Z,60.20
2018-05-15T01:25:30.176Z,60.20
2018-05-15T01:26:01.576Z,60.20
2018-05-15T01:26:32.972Z,60.40
2018-05-15T01:27:05.563Z,60.00
2018-05-15T01:27:36.974Z,60.00
2018-05-15T01:28:09.128Z,60.30
2018-05-15T01:28:40.536Z,60.30
2018-05-15T01:29:11.927Z,60.30
2018-05-15T01:29:43.315Z,60.10
2018-05-15T01:30:14.716Z,60.20
2018-05-15T01:30:46.123Z,60.10
2018-05-15T01:31:17.517Z,60.00
2018-05-15T01:31:48.907Z,60.20
2018-05-15T01:32:20.332Z,60.10
2018-05-15T01:32:51.733Z,60.10
2018-05-15T01:33:23.124Z,60.20
2018-05-15T01:33:54.527Z,60.40
2018-05-15T01:34:25.915Z,60.30
2018-05-15T01:34:57.311Z,60.30
2018-05-15T01:35:28.720Z,60.40
2018-05-15T01:36:00.152Z,60.40
2018-05-15T01:36:32.296Z,60.20
2018-05-15T01:37:03.703Z,60.30
2018-05-15T01:37:35.157Z,60.40
2018-05-15T01:38:06.580Z,60.40
2018-05-15T01:38:37.987Z,60.50
2018-05-15T01:39:10.127Z,60.50
2018-05-15T01:39:42.308Z,60.50
2018-05-15T01:40:14.444Z,60.40
2018-05-15T01:40:45.860Z,60.30
2018-05-15T01:41:17.268Z,60.20
2018-05-15T01:41:48.659Z,60.00
2018-05-15T01:42:20.055Z,60.00
2018-05-15T01:42:51.904Z,59.80
2018-05-15T01:43:23.319Z,59.80
2018-05-15T01:43:55.455Z,59.90
2018-05-15T01:44:26.851Z,59.90
2018-05-15T01:44:58.245Z,59.90
2018-05-15T01:45:31.120Z,59.70
2018-05-15T01:46:02.543Z,59.70
2018-05-15T01:46:33.951Z,59.60
2018-05-15T01:47:05.368Z,59.70
2018-05-15T01:47:37.547Z,59.70
2018-05-15T01:48:08.980Z,59.70
2018-05-15T01:48:41.120Z,59.80
2018-05-15T01:49:13.259Z,59.80
2018-05-15T01:49:46.135Z,59.80
2018-05-15T01:50:17.543Z,59.80
2018-05-15T01:50:48.944Z,59.90
2018-05-15T01:51:21.090Z,60.00
2018-05-15T01:51:52.699Z,60.00
2018-05-15T01:52:24.095Z,60.00
2018-05-15T01:52:55.515Z,60.00
2018-05-15T01:53:26.970Z,60.10
2018-05-15T01:53:59.107Z,60.20
2018-05-15T01:54:30.505Z,60.10
2018-05-15T01:55:01.933Z,60.00
2018-05-15T01:55:33.351Z,60.10
2018-05-15T01:56:05.488Z,59.80
2018-05-15T01:56:37.651Z,60.00
2018-05-15T01:57:09.060Z,60.00
2018-05-15T01:57:40.447Z,60.00
2018-05-15T01:58:13.324Z,60.00
2018-05-15T01:58:45.493Z,60.00
2018-05-15T01:59:17.623Z,59.90
2018-05-15T01:59:49.023Z,59.90
2018-05-15T02:00:20.416Z,60.30
2018-05-15T02:00:52.584Z,60.20
2018-05-15T02:01:24.004Z,60.20
2018-05-15T02:01:55.403Z,60.10
2018-05-15T02:02:26.828Z,60.00
2018-05-15T02:02:58.228Z,59.70
2018-05-15T02:03:29.626Z,59.80
2018-05-15T02:04:01.051Z,60.00
2018-05-15T02:04:32.461Z,60.30
2018-05-15T02:05:04.603Z,60.30
2018-05-15T02:05:36.012Z,60.30
2018-05-15T02:06:07.443Z,60.00
2018-05-15T02:06:38.840Z,60.00
2018-05-15T02:07:10.988Z,60.20
2018-05-15T02:07:42.375Z,60.20
2018-05-15T02:08:13.767Z,60.20
2018-05-15T02:08:45.188Z,60.20
2018-05-15T02:09:16.616Z,60.40
2018-05-15T02:09:48.016Z,60.50
2018-05-15T02:10:19.448Z,60.60
2018-05-15T02:10:51.601Z,60.50
2018-05-15T02:11:22.999Z,60.50
2018-05-15T02:11:54.391Z,60.60
2018-05-15T02:12:25.797Z,60.70
2018-05-15T02:12:57.192Z,60.90
2018-05-15T02:13:28.627Z,60.60
2018-05-15T02:14:00.782Z,60.60
2018-05-15T02:14:32.944Z,60.90
2018-05-15T02:15:04.384Z,60.50
2018-05-15T02:15:35.806Z,60.60
2018-05-15T02:16:07.336Z,60.50
2018-05-15T02:16:39.408Z,60.80
2018-05-15T02:17:10.803Z,60.50
2018-05-15T02:17:42.208Z,60.20
2018-05-15T02:18:14.364Z,60.50
2018-05-15T02:18:46.534Z,60.80
2018-05-15T02:19:17.955Z,60.80
2018-05-15T02:19:49.403Z,61.10
2018-05-15T02:20:20.791Z,61.20
2018-05-15T02:20:52.225Z,60.90
2018-05-15T02:21:23.623Z,60.80
2018-05-15T02:21:55.016Z,60.80
2018-05-15T02:22:26.411Z,60.70
2018-05-15T02:22:57.807Z,60.60
2018-05-15T02:23:29.204Z,61.00
2018-05-15T02:24:01.335Z,60.40
2018-05-15T02:24:32.727Z,61.30
2018-05-15T02:25:04.183Z,60.60
2018-05-15T02:25:35.575Z,60.70
2018-05-15T02:26:07.732Z,60.60
2018-05-15T02:26:39.153Z,60.60
2018-05-15T02:27:10.556Z,60.60
2018-05-15T02:27:41.948Z,60.60
2018-05-15T02:28:14.120Z,60.80
2018-05-15T02:28:47.004Z,60.90
2018-05-15T02:29:19.139Z,61.10
2018-05-15T02:29:50.539Z,61.10
2018-05-15T02:30:22.305Z,61.10
2018-05-15T02:30:53.675Z,61.20
2018-05-15T02:31:25.068Z,61.40
2018-05-15T02:31:56.476Z,61.50
2018-05-15T02:32:28.624Z,61.70
2018-05-15T02:33:00.776Z,62.10
2018-05-15T02:33:32.176Z,61.40
2018-05-15T02:34:03.592Z,61.70
2018-05-15T02:34:34.991Z,61.60
2018-05-15T02:35:07.871Z,61.50
2018-05-15T02:35:39.296Z,61.50
2018-05-15T02:36:10.691Z,61.70
2018-05-15T02:36:42.840Z,61.80
2018-05-15T02:37:14.986Z,61.80
2018-05-15T02:37:46.376Z,61.70
2018-05-15T02:38:17.771Z,61.30
2018-05-15T02:38:49.911Z,61.50
2018-05-15T02:39:21.331Z,61.60
2018-05-15T02:39:52.732Z,61.60
2018-05-15T02:40:24.873Z,61.70
2018-05-15T02:40:56.283Z,61.70
2018-05-15T02:41:27.676Z,61.50
2018-05-15T02:41:59.101Z,61.20
2018-05-15T02:42:31.264Z,61.20
2018-05-15T02:43:03.411Z,61.40
2018-05-15T02:43:34.845Z,61.30
2018-05-15T02:44:06.245Z,61.20
2018-05-15T02:44:37.692Z,61.00
2018-05-15T02:45:09.091Z,60.80
2018-05-15T02:45:41.242Z,61.30
2018-05-15T02:46:13.732Z,61.10
2018-05-15T02:46:45.131Z,61.10
2018-05-15T02:47:16.534Z,60.70
2018-05-15T02:47:47.923Z,60.30
2018-05-15T02:48:19.320Z,60.50
2018-05-15T02:48:50.716Z,60.90
2018-05-15T02:49:22.869Z,61.40
2018-05-15T02:49:55.016Z,61.50
2018-05-15T02:50:26.415Z,61.40
2018-05-15T02:50:57.820Z,61.30
2018-05-15T02:51:29.987Z,61.40
2018-05-15T02:52:02.284Z,61.50
2018-05-15T02:52:33.671Z,61.40
2018-05-15T02:53:05.064Z,61.50
2018-05-15T02:53:36.464Z,61.50
2018-05-15T02:54:08.596Z,62.10
2018-05-15T02:54:40.000Z,61.50
2018-05-15T02:55:11.400Z,61.60
2018-05-15T02:55:43.544Z,62.10
2018-05-15T02:56:14.935Z,61.50
2018-05-15T02:56:46.366Z,61.50
2018-05-15T02:57:17.764Z,61.50
2018-05-15T02:57:49.208Z,61.40
2018-05-15T02:58:20.600Z,61.50
2018-05-15T02:58:52.008Z,61.30
2018-05-15T02:59:23.412Z,61.20
2018-05-15T02:59:54.821Z,61.30
2018-05-15T03:00:26.228Z,61.40
2018-05-15T03:00:58.364Z,61.40
2018-05-15T03:01:31.252Z,61.40
2018-05-15T03:02:03.465Z,61.30
2018-05-15T03:02:34.863Z,61.30
2018-05-15T03:03:07.024Z,61.50
2018-05-15T03:03:38.940Z,61.50
2018-05-15T03:04:10.351Z,61.60
2018-05-15T03:04:41.749Z,61.80
2018-05-15T03:05:14.616Z,62.00
2018-05-15T03:05:46.800Z,62.00
2018-05-15T03:06:18.219Z,62.00
2018-05-15T03:06:49.680Z,61.90
2018-05-15T03:07:21.132Z,61.90
2018-05-15T03:07:52.553Z,61.80
2018-05-15T03:08:24.713Z,61.70
2018-05-15T03:08:56.859Z,61.60
2018-05-15T03:09:28.248Z,61.60
2018-05-15T03:09:59.644Z,61.80
2018-05-15T03:10:31.048Z,61.90
2018-05-15T03:11:02.460Z,61.90
2018-05-15T03:11:34.600Z,62.10
2018-05-15T03:12:06.739Z,62.20
2018-05-15T03:12:38.936Z,62.10
2018-05-15T03:13:11.077Z,62.30
2018-05-15T03:13:42.508Z,62.30
2018-05-15T03:14:13.919Z,62.30
2018-05-15T03:14:45.311Z,62.20
2018-05-15T03:15:17.460Z,62.20
2018-05-15T03:15:49.604Z,62.20
2018-05-15T03:16:21.008Z,62.10
2018-05-15T03:16:52.408Z,62.20
2018-05-15T03:17:24.563Z,62.20
2018-05-15T03:17:56.724Z,62.30
2018-05-15T03:18:28.863Z,62.30
2018-05-15T03:19:00.268Z,62.30
2018-05-15T03:19:31.672Z,62.10
2018-05-15T03:20:03.111Z,62.10
2018-05-15T03:20:35.264Z,61.60
2018-05-15T03:21:07.408Z,61.30
2018-05-15T03:21:38.811Z,61.20
2018-05-15T03:22:10.205Z,61.50
2018-05-15T03:22:42.361Z,61.60
2018-05-15T03:23:14.547Z,61.80
2018-05-15T03:23:45.961Z,61.60
2018-05-15T03:24:18.099Z,62.30
2018-05-15T03:24:50.991Z,61.70
2018-05-15T03:25:22.411Z,61.70
2018-05-15T03:25:53.859Z,61.50
2018-05-15T03:26:25.256Z,61.60
2018-05-15T03:26:56.665Z,61.70
2018-05-15T03:27:28.824Z,62.50
2018-05-15T03:28:00.232Z,62.10
2018-05-15T03:28:31.653Z,62.00
2018-05-15T03:29:03.052Z,61.70
2018-05-15T03:29:35.194Z,61.90
2018-05-15T03:30:06.589Z,61.90
2018-05-15T03:30:38.001Z,61.90
2018-05-15T03:31:10.141Z,61.90
2018-05-15T03:31:41.583Z,61.90
2018-05-15T03:32:12.955Z,61.90
2018-05-15T03:32:44.364Z,62.10
2018-05-15T03:33:15.788Z,62.00
2018-05-15T03:33:47.594Z,62.10
2018-05-15T03:34:18.994Z,62.20
2018-05-15T03:34:50.389Z,62.40
2018-05-15T03:35:21.796Z,62.20
2018-05-15T03:35:53.936Z,62.20
2018-05-15T03:36:25.329Z,62.20
2018-05-15T03:36:56.728Z,62.10
2018-05-15T03:37:28.867Z,62.10
2018-05-15T03:38:00.264Z,62.10
2018-05-15T03:38:31.668Z,62.00
2018-05-15T03:39:03.887Z,62.10
2018-05-15T03:39:35.328Z,62.10
2018-05-15T03:40:06.723Z,62.10
2018-05-15T03:40:38.872Z,62.30
2018-05-15T03:41:10.266Z,62.40
2018-05-15T03:41:41.672Z,62.20
2018-05-15T03:42:13.807Z,62.50
2018-05-15T03:42:45.940Z,62.60
2018-05-15T03:43:17.336Z,62.60
2018-05-15T03:43:48.735Z,62.70
2018-05-15T03:44:20.908Z,62.80
2018-05-15T03:44:53.040Z,62.80
2018-05-15T03:45:26.258Z,62.80
2018-05-15T03:46:57.419Z,62.70
2018-05-15T03:47:29.563Z,63.20
2018-05-15T03:48:00.959Z,63.10
2018-05-15T03:48:32.352Z,63.10
2018-05-15T03:49:04.506Z,62.90
2018-05-15T03:49:37.100Z,63.00
2018-05-15T03:50:08.512Z,63.00
2018-05-15T03:50:39.908Z,63.00
2018-05-15T03:51:11.312Z,63.20
2018-05-15T03:51:43.456Z,63.20
2018-05-15T03:52:15.761Z,63.70
2018-05-15T03:52:47.155Z,63.30
2018-05-15T03:53:18.547Z,63.00
2018-05-15T03:53:49.959Z,63.00
2018-05-15T03:54:22.091Z,62.60
2018-05-15T03:54:53.557Z,62.60
2018-05-15T03:55:25.700Z,63.00
2018-05-15T03:55:57.835Z,63.00
2018-05-15T03:56:29.259Z,62.90
2018-05-15T03:57:00.681Z,63.00
2018-05-15T03:57:32.075Z,63.00
2018-05-15T03:58:03.484Z,63.30
2018-05-15T03:58:34.876Z,63.50
2018-05-15T03:59:07.024Z,63.30
2018-05-15T03:59:39.174Z,63.20
2018-05-15T04:00:23.760Z,63.20
2018-05-15T04:01:07.541Z,63.20
2018-05-15T04:01:51.483Z,63.10
2018-05-15T04:02:35.204Z,63.20
2018-05-15T04:03:18.904Z,63.40
2018-05-15T04:04:02.677Z,63.50
2018-05-15T04:04:46.391Z,63.20
2018-05-15T04:05:30.900Z,63.40
2018-05-15T04:06:14.615Z,63.40
2018-05-15T04:06:58.348Z,63.40
2018-05-15T04:07:42.036Z,63.70
2018-05-15T04:08:14.172Z,63.00
2018-05-15T04:08:45.695Z,63.00
2018-05-15T04:09:17.072Z,63.30
2018-05-15T04:09:48.504Z,63.30
2018-05-15T04:10:19.948Z,63.00
2018-05-15T04:10:51.475Z,62.70
2018-05-15T04:11:22.799Z,62.50
2018-05-15T04:11:54.944Z,62.90
2018-05-15T04:12:26.336Z,62.80
2018-05-15T04:12:57.732Z,62.50
2018-05-15T04:13:29.871Z,62.70
2018-05-15T04:14:02.064Z,62.60
2018-05-15T04:14:33.500Z,62.60
2018-05-15T04:15:05.644Z,62.30
2018-05-15T04:15:37.043Z,62.30
2018-05-15T04:16:08.501Z,61.50
2018-05-15T04:16:39.905Z,61.10
2018-05-15T04:17:11.303Z,60.90
2018-05-15T04:17:42.711Z,61.10
2018-05-15T04:18:14.115Z,61.50
2018-05-15T04:18:45.540Z,61.30
2018-05-15T04:19:16.932Z,61.10
2018-05-15T04:19:48.351Z,61.60
2018-05-15T04:20:19.756Z,60.90
2018-05-15T04:20:51.160Z,61.10
2018-05-15T04:21:22.596Z,61.40
2018-05-15T04:21:54.000Z,61.30
2018-05-15T04:22:26.138Z,61.40
2018-05-15T04:22:57.548Z,61.40
2018-05-15T04:23:28.960Z,61.40
2018-05-15T04:24:00.365Z,61.60
2018-05-15T04:24:31.780Z,62.00
2018-05-15T04:25:04.111Z,62.10
2018-05-15T04:25:35.515Z,61.70
2018-05-15T04:26:06.904Z,61.50
2018-05-15T04:26:38.356Z,61.70
2018-05-15T04:27:09.747Z,61.70
2018-05-15T04:27:41.152Z,61.40
2018-05-15T04:28:12.610Z,61.50
2018-05-15T04:28:43.977Z,61.90
2018-05-15T04:29:16.115Z,62.50
2018-05-15T04:29:47.553Z,62.40
2018-05-15T04:30:18.984Z,62.20
2018-05-15T04:30:50.391Z,61.80
2018-05-15T04:31:21.796Z,61.60
2018-05-15T04:31:53.983Z,61.40
2018-05-15T04:32:25.412Z,61.40
2018-05-15T04:32:57.554Z,61.90
2018-05-15T04:33:28.967Z,61.90
2018-05-15T04:34:00.391Z,61.90
2018-05-15T04:34:31.786Z,61.70
2018-05-15T04:35:04.008Z,62.00
2018-05-15T04:35:35.380Z,62.00
2018-05-15T04:36:07.535Z,62.00
2018-05-15T04:36:38.930Z,61.30
2018-05-15T04:37:10.380Z,61.80
2018-05-15T04:37:41.784Z,61.20
2018-05-15T04:38:13.184Z,61.20
2018-05-15T04:38:44.592Z,61.50
2018-05-15T04:39:16.016Z,61.50
2018-05-15T04:39:47.418Z,61.00
2018-05-15T04:40:18.820Z,61.00
2018-05-15T04:40:50.267Z,61.10
2018-05-15T04:41:21.693Z,61.20
2018-05-15T04:41:53.104Z,61.00
2018-05-15T04:42:25.287Z,60.60
2018-05-15T04:42:56.689Z,60.50
2018-05-15T04:43:28.124Z,60.50
2018-05-15T04:44:00.297Z,60.60
2018-05-15T04:44:32.448Z,60.80
2018-05-15T04:45:04.616Z,60.80
2018-05-15T04:45:36.773Z,60.60
2018-05-15T04:46:08.931Z,60.30
2018-05-15T04:46:40.324Z,60.30
2018-05-15T04:47:11.725Z,61.20
2018-05-15T04:47:43.892Z,60.90
2018-05-15T04:48:16.035Z,60.70
2018-05-15T04:48:47.432Z,60.70
2018-05-15T04:49:18.928Z,60.50
2018-05-15T04:49:50.279Z,60.40
2018-05-15T04:50:21.704Z,60.40
2018-05-15T04:50:53.848Z,60.60
2018-05-15T04:51:25.267Z,60.60
2018-05-15T04:51:56.659Z,60.70
2018-05-15T04:52:28.233Z,60.60
2018-05-15T04:52:59.665Z,60.60
2018-05-15T04:53:31.065Z,60.70
2018-05-15T04:54:03.224Z,60.00
2018-05-15T04:54:34.619Z,60.00
2018-05-15T04:55:06.041Z,59.90
2018-05-15T04:55:37.454Z,59.50
2018-05-15T04:56:09.592Z,59.50
2018-05-15T04:56:41.004Z,59.50
2018-05-15T04:57:12.413Z,59.40
2018-05-15T04:57:43.823Z,59.40
2018-05-15T04:58:15.255Z,59.40
2018-05-15T04:58:46.668Z,59.30
2018-05-15T04:59:18.063Z,59.40
2018-05-15T04:59:50.208Z,59.80
2018-05-15T05:00:21.600Z,59.70
2018-05-15T05:00:53.000Z,59.60
2018-05-15T05:01:24.432Z,60.10
2018-05-15T05:01:55.843Z,59.40
2018-05-15T05:02:27.247Z,59.30
2018-05-15T05:02:58.653Z,59.50
2018-05-15T05:03:30.104Z,59.30
2018-05-15T05:04:02.310Z,58.90
2018-05-15T05:04:33.735Z,58.80
2018-05-15T05:05:05.166Z,58.80
2018-05-15T05:05:37.308Z,58.70
2018-05-15T05:06:08.713Z,58.70
2018-05-15T05:06:40.124Z,58.70
2018-05-15T05:07:11.524Z,58.60
2018-05-15T05:07:43.684Z,58.50
2018-05-15T05:08:15.083Z,58.50
2018-05-15T05:08:46.519Z,58.50
2018-05-15T05:09:17.919Z,58.60
2018-05-15T05:09:50.071Z,59.00
2018-05-15T05:10:22.253Z,59.50
2018-05-15T05:10:53.654Z,58.90
2018-05-15T05:11:25.047Z,58.90
2018-05-15T05:11:56.448Z,58.80
2018-05-15T05:12:27.843Z,58.70
2018-05-15T05:12:59.239Z,58.90
2018-05-15T05:13:31.380Z,58.90
2018-05-15T05:14:03.548Z,58.60
2018-05-15T05:14:34.950Z,58.60
2018-05-15T05:15:06.351Z,58.70
2018-05-15T05:15:37.783Z,58.50
2018-05-15T05:16:09.176Z,58.40
2018-05-15T05:16:40.595Z,58.70
2018-05-15T05:17:11.998Z,58.20
2018-05-15T05:17:43.404Z,58.30
2018-05-15T05:18:14.799Z,58.10
2018-05-15T05:18:46.936Z,58.00
2018-05-15T05:19:18.360Z,58.00
2018-05-15T05:19:49.768Z,58.00
2018-05-15T05:20:21.177Z,57.80
2018-05-15T05:20:53.329Z,57.90
2018-05-15T05:21:25.485Z,57.80
2018-05-15T05:21:56.884Z,57.80
2018-05-15T05:22:28.289Z,57.80
2018-05-15T05:23:00.428Z,57.70
2018-05-15T05:23:32.580Z,57.70
2018-05-15T05:24:04.008Z,57.70
2018-05-15T05:24:35.820Z,58.10
2018-05-15T05:25:07.235Z,57.60
2018-05-15T05:25:39.385Z,57.00
2018-05-15T05:26:11.540Z,56.30
2018-05-15T05:26:42.940Z,56.30
2018-05-15T05:27:14.414Z,56.10
2018-05-15T05:27:45.757Z,55.90
2018-05-15T05:28:17.916Z,55.80
2018-05-15T05:28:49.322Z,55.80
2018-05-15T05:29:20.792Z,55.90
2018-05-15T05:29:52.264Z,55.80
2018-05-15T05:30:23.677Z,55.80
2018-05-15T05:30:55.088Z,55.70
2018-05-15T05:31:26.505Z,55.90
2018-05-15T05:31:57.899Z,56.40
2018-05-15T05:32:29.296Z,56.60
2018-05-15T05:33:00.695Z,56.70
2018-05-15T05:33:32.099Z,56.70
2018-05-15T05:34:03.504Z,56.70
2018-05-15T05:34:34.904Z,56.80
2018-05-15T05:35:06.368Z,56.70
2018-05-15T05:35:38.527Z,56.70
2018-05-15T05:36:10.676Z,56.70
2018-05-15T05:36:42.076Z,56.70
2018-05-15T05:37:13.488Z,56.20
2018-05-15T05:37:45.675Z,56.80
2018-05-15T05:38:17.059Z,56.80
2018-05-15T05:38:48.483Z,56.70
2018-05-15T05:39:19.888Z,56.80
2018-05-15T05:39:51.328Z,56.50
2018-05-15T05:40:22.775Z,55.90
2018-05-15T05:40:54.181Z,55.90
2018-05-15T05:41:26.327Z,55.20
2018-05-15T05:41:58.497Z,54.50
2018-05-15T05:42:30.640Z,54.20
2018-05-15T05:43:02.045Z,54.20
2018-05-15T05:43:33.463Z,54.00
2018-05-15T05:44:04.875Z,54.20
2018-05-15T05:44:37.044Z,54.40
2018-05-15T05:45:09.188Z,53.30
2018-05-15T05:45:40.627Z,53.20
2018-05-15T05:46:12.019Z,52.90
2018-05-15T05:46:43.424Z,52.50
2018-05-15T05:47:15.559Z,52.20
2018-05-15T05:47:47.720Z,51.70
2018-05-15T05:48:19.120Z,51.50
2018-05-15T05:48:50.515Z,51.40
2018-05-15T05:49:22.664Z,51.50
2018-05-15T05:49:54.064Z,51.30
2018-05-15T05:50:25.484Z,51.10
2018-05-15T05:50:56.951Z,51.00
2018-05-15T05:51:28.360Z,50.70
2018-05-15T05:51:59.761Z,50.70
2018-05-15T05:52:31.376Z,50.70
2018-05-15T05:53:02.795Z,51.00
2018-05-15T05:53:34.940Z,52.10
2018-05-15T05:54:07.099Z,52.00
2018-05-15T05:54:39.234Z,51.40
2018-05-15T05:55:12.123Z,51.10
2018-05-15T05:55:43.520Z,51.00
2018-05-15T05:56:14.956Z,50.90
2018-05-15T05:56:46.356Z,50.80
2018-05-15T05:57:18.492Z,50.10
2018-05-15T05:57:49.891Z,50.10
2018-05-15T05:58:21.307Z,49.80
2018-05-15T05:58:53.444Z,50.40
2018-05-15T05:59:24.851Z,50.40
2018-05-15T05:59:56.244Z,49.60
2018-05-15T06:00:28.384Z,48.10
2018-05-15T06:00:59.781Z,48.00
2018-05-15T06:01:31.228Z,48.40
2018-05-15T06:02:02.707Z,48.80
2018-05-15T06:02:34.127Z,48.60
2018-05-15T06:03:05.556Z,48.80
2018-05-15T06:03:36.964Z,48.10
2018-05-15T06:04:08.371Z,47.60
2018-05-15T06:04:39.784Z,48.00
2018-05-15T06:05:11.200Z,48.10
2018-05-15T06:05:42.599Z,48.60
2018-05-15T06:06:14.004Z,47.90
2018-05-15T06:06:45.827Z,47.90
2018-05-15T06:07:17.258Z,49.00
2018-05-15T06:07:48.636Z,49.40
2018-05-15T06:08:20.056Z,49.90
2018-05-15T06:08:51.455Z,49.10
2018-05-15T06:09:22.860Z,48.50
2018-05-15T06:09:54.280Z,47.90
2018-05-15T06:10:25.674Z,48.30
2018-05-15T06:10:57.085Z,48.20
2018-05-15T06:11:28.488Z,47.80
2018-05-15T06:11:59.919Z,48.20
2018-05-15T06:12:32.064Z,48.50
2018-05-15T06:13:03.499Z,48.50
2018-05-15T06:13:34.913Z,48.80
2018-05-15T06:14:06.332Z,49.70
2018-05-15T06:14:37.751Z,49.70
2018-05-15T06:15:09.896Z,49.10
2018-05-15T06:15:41.295Z,49.10
2018-05-15T06:16:12.707Z,48.50
2018-05-15T06:16:44.100Z,48.00
2018-05-15T06:17:15.527Z,47.60
2018-05-15T06:17:46.955Z,48.00
2018-05-15T06:18:18.353Z,47.70
2018-05-15T06:18:50.488Z,47.50
2018-05-15T06:19:21.893Z,47.50
2018-05-15T06:19:53.293Z,47.60
2018-05-15T06:20:25.452Z,47.70
2018-05-15T06:20:57.674Z,47.60
2018-05-15T06:21:29.759Z,47.90
2018-05-15T06:22:01.173Z,47.90
2018-05-15T06:22:32.636Z,47.50
2018-05-15T06:23:04.072Z,47.60
2018-05-15T06:23:35.475Z,47.80
2018-05-15T06:24:06.902Z,48.20
2018-05-15T06:24:38.307Z,48.10
2018-05-15T06:25:11.199Z,47.20
2018-05-15T06:25:43.360Z,47.10
2018-05-15T06:26:15.548Z,47.30
2018-05-15T06:26:46.952Z,47.30
2018-05-15T06:27:19.111Z,47.70
2018-05-15T06:27:50.892Z,47.80
2018-05-15T06:28:22.300Z,48.00
2018-05-15T06:28:54.452Z,48.00
2018-05-15T06:29:25.852Z,47.90
2018-05-15T06:29:57.263Z,47.70
2018-05-15T06:30:28.743Z,47.50
2018-05-15T06:31:00.832Z,47.20
2018-05-15T06:31:32.234Z,47.20
2018-05-15T06:32:03.660Z,47.30
2018-05-15T06:32:35.060Z,47.30
2018-05-15T06:33:07.989Z,47.20
2018-05-15T06:33:39.403Z,47.20
2018-05-15T06:34:11.551Z,48.20
2018-05-15T06:34:43.703Z,48.70
2018-05-15T06:35:15.104Z,48.70
2018-05-15T06:35:46.530Z,48.60
2018-05-15T06:36:17.949Z,48.80
2018-05-15T06:36:49.397Z,49.30
2018-05-15T06:37:20.840Z,49.20
2018-05-15T06:37:52.256Z,49.80
2018-05-15T06:38:24.449Z,49.70
2018-05-15T06:38:55.852Z,49.80
2018-05-15T06:39:28.016Z,50.70
2018-05-15T06:40:00.161Z,51.20
2018-05-15T06:40:31.572Z,51.30
2018-05-15T06:41:02.986Z,51.60
2018-05-15T06:41:34.384Z,52.10
2018-05-15T06:42:05.816Z,52.40
2018-05-15T06:42:37.223Z,52.40
2018-05-15T06:43:08.624Z,52.00
2018-05-15T06:43:40.800Z,52.10
2018-05-15T06:44:12.949Z,52.30
2018-05-15T06:44:45.174Z,52.60
2018-05-15T06:45:17.258Z,52.20
2018-05-15T06:45:49.407Z,52.30
2018-05-15T06:46:21.564Z,52.40
2018-05-15T06:46:52.963Z,52.40
2018-05-15T06:47:24.360Z,52.30
2018-05-15T06:47:56.500Z,52.70
2018-05-15T06:48:27.899Z,52.10
2018-05-15T06:48:59.371Z,51.90
2018-05-15T06:49:30.768Z,52.10
2018-05-15T06:50:02.220Z,52.10
2018-05-15T06:50:33.647Z,51.80
2018-05-15T06:51:05.080Z,51.60
2018-05-15T06:51:37.232Z,52.30
2018-05-15T06:52:09.389Z,52.20
2018-05-15T06:52:40.988Z,52.20